DLH310 UUOO-URSS
Flight info
| Callsign | DLH310 |
|---|---|
| Flight time | 1h 6m |
| Altitude | 39000 |
| Route | PILOK1G PILOK L96 UMSIS N166 ADNET W79 BINOL BINOL1K |
| Aircraft | A346/H-SDE2E3FGHIJ3J4J5M1RWXY/LB1D1 |
Departure
| Time | 2026-04-17 14:01 |
|---|---|
| Airport | Voronezh International Airport (UUOO) |
Arrival
| Time | 2026-04-17 15:08 |
|---|---|
| Airport | Sochi International Airport (URSS) |
| Time | Latitude | Longitude | Altitude | Speed | Heading |
|---|---|---|---|---|---|
| 2026-04-17 13:41 | 51.81236 | 39.22755 | 522 ft | 0 kts | 223° |
| 2026-04-17 13:53 | 51.81246 | 39.22769 | 522 ft | 4 kts | 223° |
| 2026-04-17 13:53 | 51.81265 | 39.22798 | 522 ft | 4 kts | 225° |
| 2026-04-17 13:53 | 51.81281 | 39.22830 | 522 ft | 4 kts | 245° |
| 2026-04-17 13:54 | 51.81284 | 39.22857 | 522 ft | 2 kts | 318° |
| 2026-04-17 13:54 | 51.81261 | 39.22890 | 522 ft | 4 kts | 318° |
| 2026-04-17 13:55 | 51.81252 | 39.22903 | 522 ft | 0 kts | 318° |
| 2026-04-17 13:57 | 51.81262 | 39.22888 | 522 ft | 3 kts | 318° |
| 2026-04-17 13:58 | 51.81288 | 39.22850 | 522 ft | 6 kts | 317° |
| 2026-04-17 13:58 | 51.81374 | 39.22689 | 522 ft | 12 kts | 309° |
| 2026-04-17 13:58 | 51.81435 | 39.22571 | 522 ft | 15 kts | 311° |
| 2026-04-17 13:59 | 51.81598 | 39.22269 | 522 ft | 21 kts | 310° |
| 2026-04-17 13:59 | 51.81697 | 39.22083 | 522 ft | 23 kts | 311° |
| 2026-04-17 13:59 | 51.81786 | 39.21917 | 522 ft | 15 kts | 311° |
| 2026-04-17 14:00 | 51.81838 | 39.21833 | 522 ft | 11 kts | 329° |
| 2026-04-17 14:00 | 51.81924 | 39.21816 | 522 ft | 14 kts | 8° |
| 2026-04-17 14:00 | 51.82019 | 39.21870 | 524 ft | 15 kts | 47° |
| 2026-04-17 14:00 | 51.82005 | 39.22027 | 525 ft | 17 kts | 128° |
| 2026-04-17 14:01 | 51.81827 | 39.22367 | 522 ft | 77 kts | 131° |
| 2026-04-17 14:01 | 51.81311 | 39.23328 | 522 ft | 147 kts | 130° |
| 2026-04-17 14:01 | 51.80537 | 39.24791 | 758 ft | 182 kts | 130° |
| 2026-04-17 14:01 | 51.79706 | 39.26375 | 1610 ft | 185 kts | 133° |
| 2026-04-17 14:02 | 51.78881 | 39.27946 | 2539 ft | 181 kts | 135° |
| 2026-04-17 14:02 | 51.78037 | 39.29504 | 3024 ft | 194 kts | 136° |
| 2026-04-17 14:02 | 51.77105 | 39.31211 | 3454 ft | 211 kts | 135° |
| 2026-04-17 14:02 | 51.76088 | 39.33091 | 3901 ft | 228 kts | 135° |
| 2026-04-17 14:03 | 51.75001 | 39.35112 | 4388 ft | 247 kts | 135° |
| 2026-04-17 14:03 | 51.73997 | 39.37415 | 5166 ft | 255 kts | 117° |
| 2026-04-17 14:03 | 51.73594 | 39.40185 | 6028 ft | 264 kts | 98° |
| 2026-04-17 14:03 | 51.73508 | 39.43246 | 6637 ft | 281 kts | 95° |
| 2026-04-17 14:04 | 51.73471 | 39.46500 | 7384 ft | 289 kts | 94° |
| 2026-04-17 14:04 | 51.73436 | 39.49710 | 8266 ft | 290 kts | 95° |
| 2026-04-17 14:04 | 51.73389 | 39.53027 | 9206 ft | 293 kts | 95° |
| 2026-04-17 14:04 | 51.73332 | 39.56292 | 10079 ft | 296 kts | 95° |
| 2026-04-17 14:05 | 51.73265 | 39.59667 | 10777 ft | 307 kts | 95° |
| 2026-04-17 14:05 | 51.73189 | 39.63209 | 11248 ft | 324 kts | 95° |
| 2026-04-17 14:05 | 51.73107 | 39.66940 | 11722 ft | 339 kts | 95° |
| 2026-04-17 14:05 | 51.73024 | 39.70791 | 12457 ft | 345 kts | 95° |
| 2026-04-17 14:06 | 51.72939 | 39.74684 | 13279 ft | 348 kts | 95° |
| 2026-04-17 14:06 | 51.72851 | 39.78610 | 14027 ft | 352 kts | 95° |
| 2026-04-17 14:06 | 51.72698 | 39.85318 | 15168 ft | 359 kts | 94° |
| 2026-04-17 14:06 | 51.74007 | 39.93557 | 16577 ft | 372 kts | 57° |
| 2026-04-17 14:07 | 51.78013 | 39.99035 | 17997 ft | 375 kts | 20° |
| 2026-04-17 14:07 | 51.83162 | 39.99842 | 19202 ft | 372 kts | 345° |
| 2026-04-17 14:07 | 51.87641 | 39.95938 | 20342 ft | 367 kts | 311° |
| 2026-04-17 14:07 | 51.90040 | 39.88757 | 21491 ft | 364 kts | 279° |
| 2026-04-17 14:08 | 51.89630 | 39.80638 | 22644 ft | 365 kts | 248° |
| 2026-04-17 14:08 | 51.86516 | 39.74164 | 23736 ft | 372 kts | 216° |
| 2026-04-17 14:08 | 51.81383 | 39.71266 | 24303 ft | 401 kts | 193° |
| 2026-04-17 14:08 | 51.75562 | 39.69350 | 24731 ft | 426 kts | 194° |
| 2026-04-17 14:09 | 51.69282 | 39.67022 | 25515 ft | 440 kts | 196° |
| 2026-04-17 14:09 | 51.62948 | 39.64651 | 26671 ft | 448 kts | 190° |
| 2026-04-17 14:09 | 51.56616 | 39.66510 | 27617 ft | 472 kts | 156° |
| 2026-04-17 14:09 | 51.51395 | 39.73240 | 28612 ft | 483 kts | 146° |
| 2026-04-17 14:10 | 51.45272 | 39.77867 | 29875 ft | 473 kts | 164° |
| 2026-04-17 14:10 | 51.38518 | 39.81573 | 31240 ft | 469 kts | 166° |
| 2026-04-17 14:10 | 51.32125 | 39.84978 | 32312 ft | 470 kts | 166° |
| 2026-04-17 14:10 | 51.25106 | 39.88696 | 33495 ft | 470 kts | 166° |
| 2026-04-17 14:11 | 51.09009 | 39.97203 | 35787 ft | 470 kts | 166° |
| 2026-04-17 14:11 | 50.91891 | 40.06232 | 37610 ft | 474 kts | 166° |
| 2026-04-17 14:11 | 50.73649 | 40.15779 | 38942 ft | 482 kts | 165° |
| 2026-04-17 14:11 | 50.55355 | 40.25277 | 39050 ft | 485 kts | 165° |
| 2026-04-17 14:12 | 50.36857 | 40.34791 | 39045 ft | 485 kts | 166° |
| 2026-04-17 14:12 | 50.00172 | 40.53423 | 39054 ft | 486 kts | 166° |
| 2026-04-17 14:13 | 49.44213 | 40.70729 | 39060 ft | 477 kts | 185° |
| 2026-04-17 14:13 | 49.06857 | 40.69739 | 39070 ft | 478 kts | 185° |
| 2026-04-17 14:14 | 48.68858 | 40.62661 | 39052 ft | 473 kts | 196° |
| 2026-04-17 14:14 | 48.30836 | 40.51737 | 39071 ft | 474 kts | 195° |
| 2026-04-17 14:15 | 47.95880 | 40.41890 | 39055 ft | 475 kts | 196° |
| 2026-04-17 14:15 | 47.89200 | 40.40028 | 39063 ft | 475 kts | 196° |
| 2026-04-17 14:16 | 47.82685 | 40.38613 | 39063 ft | 479 kts | 190° |
| 2026-04-17 14:16 | 47.75980 | 40.38233 | 39073 ft | 488 kts | 184° |
| 2026-04-17 14:17 | 47.69739 | 40.38770 | 39071 ft | 499 kts | 180° |
| 2026-04-17 14:17 | 47.66097 | 40.39173 | 39065 ft | 501 kts | 181° |
| 2026-04-17 14:17 | 47.59251 | 40.39924 | 39063 ft | 487 kts | 181° |
| 2026-04-17 14:18 | 47.52433 | 40.40648 | 39069 ft | 486 kts | 181° |
| 2026-04-17 14:18 | 47.45677 | 40.41361 | 39064 ft | 486 kts | 181° |
| 2026-04-17 14:19 | 47.38932 | 40.42073 | 39061 ft | 486 kts | 181° |
| 2026-04-17 14:19 | 47.32205 | 40.42782 | 39068 ft | 485 kts | 181° |
| 2026-04-17 14:20 | 47.25478 | 40.43487 | 39067 ft | 484 kts | 181° |
| 2026-04-17 14:20 | 47.18750 | 40.44188 | 39064 ft | 485 kts | 181° |
| 2026-04-17 14:21 | 47.12005 | 40.44838 | 39064 ft | 484 kts | 183° |
| 2026-04-17 14:21 | 47.05304 | 40.45000 | 39060 ft | 481 kts | 184° |
| 2026-04-17 14:22 | 46.98615 | 40.45153 | 39064 ft | 481 kts | 184° |
| 2026-04-17 14:22 | 46.91927 | 40.45301 | 39057 ft | 481 kts | 184° |
| 2026-04-17 14:23 | 46.85271 | 40.45442 | 39072 ft | 482 kts | 184° |
| 2026-04-17 14:23 | 46.78570 | 40.45588 | 39064 ft | 480 kts | 184° |
| 2026-04-17 14:24 | 46.71892 | 40.45733 | 39064 ft | 480 kts | 184° |
| 2026-04-17 14:24 | 46.65217 | 40.45875 | 39064 ft | 480 kts | 184° |
| 2026-04-17 14:25 | 46.58533 | 40.46015 | 39060 ft | 481 kts | 184° |
| 2026-04-17 14:25 | 46.51843 | 40.46154 | 39057 ft | 480 kts | 184° |
| 2026-04-17 14:26 | 46.45164 | 40.46297 | 39059 ft | 480 kts | 184° |
| 2026-04-17 14:26 | 46.38507 | 40.46162 | 39058 ft | 477 kts | 188° |
| 2026-04-17 14:27 | 46.31954 | 40.45052 | 39046 ft | 472 kts | 195° |
| 2026-04-17 14:27 | 46.25582 | 40.42960 | 39052 ft | 469 kts | 199° |
| 2026-04-17 14:28 | 46.19269 | 40.40548 | 39064 ft | 469 kts | 199° |
| 2026-04-17 14:28 | 46.12933 | 40.38152 | 39053 ft | 469 kts | 199° |
| 2026-04-17 14:29 | 46.06614 | 40.35765 | 39051 ft | 468 kts | 199° |
| 2026-04-17 14:29 | 46.00317 | 40.33394 | 39057 ft | 468 kts | 199° |
| 2026-04-17 14:30 | 45.94023 | 40.31028 | 39061 ft | 468 kts | 199° |
| 2026-04-17 14:30 | 45.87720 | 40.28663 | 39055 ft | 469 kts | 199° |
| 2026-04-17 14:31 | 45.81407 | 40.26288 | 39054 ft | 469 kts | 200° |
| 2026-04-17 14:31 | 45.75235 | 40.23345 | 39055 ft | 466 kts | 206° |
| 2026-04-17 14:32 | 45.69353 | 40.19546 | 39056 ft | 463 kts | 210° |
| 2026-04-17 14:32 | 45.63565 | 40.15511 | 39046 ft | 462 kts | 210° |
| 2026-04-17 14:33 | 45.57820 | 40.11529 | 39049 ft | 462 kts | 210° |
| 2026-04-17 14:33 | 45.52037 | 40.07540 | 39052 ft | 462 kts | 209° |
| 2026-04-17 14:34 | 45.46064 | 40.04070 | 39035 ft | 465 kts | 203° |
| 2026-04-17 14:34 | 45.39827 | 40.01494 | 39043 ft | 469 kts | 197° |
| 2026-04-17 14:35 | 45.33383 | 39.99862 | 39047 ft | 472 kts | 191° |
| 2026-04-17 14:35 | 45.26851 | 39.98789 | 39042 ft | 472 kts | 191° |
| 2026-04-17 14:36 | 45.20324 | 39.97693 | 39038 ft | 471 kts | 191° |
| 2026-04-17 14:36 | 45.13820 | 39.96604 | 39042 ft | 471 kts | 191° |
| 2026-04-17 14:37 | 45.07312 | 39.95520 | 39038 ft | 472 kts | 191° |
| 2026-04-17 14:37 | 45.00787 | 39.94432 | 39003 ft | 473 kts | 191° |
| 2026-04-17 14:38 | 44.97528 | 39.93889 | 38760 ft | 471 kts | 190° |
| 2026-04-17 14:38 | 44.94283 | 39.93352 | 38481 ft | 467 kts | 190° |
| 2026-04-17 14:38 | 44.91070 | 39.92822 | 38193 ft | 464 kts | 190° |
| 2026-04-17 14:38 | 44.87845 | 39.92295 | 37908 ft | 461 kts | 191° |
| 2026-04-17 14:39 | 44.84660 | 39.91776 | 37586 ft | 461 kts | 191° |
| 2026-04-17 14:39 | 44.81481 | 39.91257 | 37232 ft | 461 kts | 191° |
| 2026-04-17 14:39 | 44.78291 | 39.90735 | 36785 ft | 461 kts | 191° |
| 2026-04-17 14:39 | 44.75105 | 39.90214 | 36247 ft | 462 kts | 191° |
| 2026-04-17 14:40 | 44.71909 | 39.89692 | 35699 ft | 462 kts | 191° |
| 2026-04-17 14:40 | 44.68715 | 39.89172 | 35131 ft | 462 kts | 191° |
| 2026-04-17 14:40 | 44.65526 | 39.88654 | 34535 ft | 462 kts | 191° |
| 2026-04-17 14:40 | 44.62369 | 39.88140 | 33936 ft | 463 kts | 191° |
| 2026-04-17 14:41 | 44.59168 | 39.87618 | 33281 ft | 463 kts | 191° |
| 2026-04-17 14:41 | 44.55961 | 39.87095 | 32597 ft | 464 kts | 191° |
| 2026-04-17 14:41 | 44.52751 | 39.86570 | 31896 ft | 465 kts | 191° |
| 2026-04-17 14:41 | 44.49534 | 39.86047 | 31286 ft | 465 kts | 191° |
| 2026-04-17 14:42 | 44.47333 | 39.85691 | 30887 ft | 464 kts | 191° |
| 2026-04-17 14:42 | 44.43075 | 39.85003 | 29935 ft | 467 kts | 191° |
| 2026-04-17 14:42 | 44.39817 | 39.84635 | 29052 ft | 474 kts | 185° |
| 2026-04-17 14:42 | 44.36502 | 39.84797 | 28235 ft | 480 kts | 178° |
| 2026-04-17 14:43 | 44.33200 | 39.85524 | 27690 ft | 480 kts | 171° |
| 2026-04-17 14:43 | 44.31018 | 39.86297 | 27395 ft | 477 kts | 168° |
| 2026-04-17 14:43 | 44.27884 | 39.87532 | 26942 ft | 472 kts | 167° |
| 2026-04-17 14:43 | 44.24734 | 39.88808 | 26432 ft | 469 kts | 167° |
| 2026-04-17 14:44 | 44.21616 | 39.90069 | 25953 ft | 465 kts | 167° |
| 2026-04-17 14:44 | 44.18515 | 39.91313 | 25484 ft | 461 kts | 167° |
| 2026-04-17 14:44 | 44.15407 | 39.92552 | 25014 ft | 457 kts | 167° |
| 2026-04-17 14:44 | 44.12367 | 39.93757 | 24570 ft | 453 kts | 167° |
| 2026-04-17 14:45 | 44.09341 | 39.94951 | 24114 ft | 450 kts | 167° |
| 2026-04-17 14:45 | 44.06333 | 39.96137 | 23678 ft | 448 kts | 167° |
| 2026-04-17 14:45 | 44.03346 | 39.97311 | 23161 ft | 445 kts | 167° |
| 2026-04-17 14:45 | 44.00376 | 39.98479 | 22691 ft | 441 kts | 167° |
| 2026-04-17 14:46 | 43.97448 | 39.99631 | 22271 ft | 440 kts | 167° |
| 2026-04-17 14:46 | 43.94505 | 40.00788 | 21861 ft | 440 kts | 167° |
| 2026-04-17 14:46 | 43.91554 | 40.01953 | 21418 ft | 436 kts | 167° |
| 2026-04-17 14:46 | 43.88647 | 40.03100 | 20986 ft | 433 kts | 167° |
| 2026-04-17 14:47 | 43.85772 | 40.04234 | 20704 ft | 424 kts | 167° |
| 2026-04-17 14:47 | 43.82984 | 40.05332 | 20606 ft | 409 kts | 167° |
| 2026-04-17 14:47 | 43.80287 | 40.06393 | 20484 ft | 396 kts | 167° |
| 2026-04-17 14:47 | 43.77676 | 40.07416 | 20368 ft | 384 kts | 167° |
| 2026-04-17 14:48 | 43.75144 | 40.08408 | 20252 ft | 372 kts | 167° |
| 2026-04-17 14:48 | 43.72695 | 40.09366 | 20135 ft | 360 kts | 167° |
| 2026-04-17 14:48 | 43.69126 | 40.10236 | 19965 ft | 334 kts | 186° |
| 2026-04-17 14:49 | 43.66101 | 40.09291 | 19687 ft | 327 kts | 206° |
| 2026-04-17 14:49 | 43.61620 | 40.06405 | 18674 ft | 330 kts | 208° |
| 2026-04-17 14:49 | 43.59544 | 40.05062 | 18245 ft | 330 kts | 208° |
| 2026-04-17 14:50 | 43.57459 | 40.03737 | 17814 ft | 328 kts | 207° |
| 2026-04-17 14:50 | 43.55402 | 40.02443 | 17495 ft | 323 kts | 207° |
| 2026-04-17 14:50 | 43.53375 | 40.01174 | 17192 ft | 317 kts | 207° |
| 2026-04-17 14:50 | 43.51380 | 39.99927 | 16879 ft | 312 kts | 207° |
| 2026-04-17 14:51 | 43.49443 | 39.98716 | 16591 ft | 308 kts | 207° |
| 2026-04-17 14:51 | 43.47503 | 39.97504 | 16328 ft | 304 kts | 207° |
| 2026-04-17 14:51 | 43.45576 | 39.96349 | 16034 ft | 301 kts | 204° |
| 2026-04-17 14:51 | 43.43601 | 39.95373 | 15664 ft | 302 kts | 201° |
| 2026-04-17 14:52 | 43.41605 | 39.94459 | 15269 ft | 303 kts | 201° |
| 2026-04-17 14:52 | 43.39604 | 39.93548 | 14866 ft | 303 kts | 201° |
| 2026-04-17 14:52 | 43.37600 | 39.92636 | 14488 ft | 304 kts | 201° |
| 2026-04-17 14:52 | 43.35590 | 39.91722 | 14097 ft | 304 kts | 200° |
| 2026-04-17 14:53 | 43.33582 | 39.90808 | 13700 ft | 304 kts | 200° |
| 2026-04-17 14:53 | 43.31569 | 39.89893 | 13268 ft | 304 kts | 200° |
| 2026-04-17 14:53 | 43.29556 | 39.88978 | 12859 ft | 303 kts | 200° |
| 2026-04-17 14:53 | 43.27560 | 39.88072 | 12466 ft | 301 kts | 200° |
| 2026-04-17 14:54 | 43.25575 | 39.87170 | 12069 ft | 300 kts | 200° |
| 2026-04-17 14:54 | 43.23594 | 39.86272 | 11663 ft | 299 kts | 200° |
| 2026-04-17 14:54 | 43.21625 | 39.85379 | 11285 ft | 298 kts | 199° |
| 2026-04-17 14:54 | 43.19657 | 39.84487 | 10892 ft | 297 kts | 199° |
| 2026-04-17 14:55 | 43.17699 | 39.83601 | 10511 ft | 296 kts | 199° |
| 2026-04-17 14:55 | 43.15743 | 39.82716 | 10127 ft | 295 kts | 199° |
| 2026-04-17 14:55 | 43.13792 | 39.81834 | 9736 ft | 295 kts | 199° |
| 2026-04-17 14:55 | 43.11860 | 39.80966 | 9455 ft | 289 kts | 199° |
| 2026-04-17 14:56 | 43.09963 | 39.80108 | 9133 ft | 285 kts | 199° |
| 2026-04-17 14:56 | 43.08073 | 39.79246 | 8680 ft | 287 kts | 199° |
| 2026-04-17 14:56 | 43.06294 | 39.78041 | 8240 ft | 288 kts | 221° |
| 2026-04-17 14:56 | 43.05145 | 39.75846 | 7910 ft | 286 kts | 249° |
| 2026-04-17 14:57 | 43.04888 | 39.73186 | 7788 ft | 284 kts | 276° |
| 2026-04-17 14:57 | 43.05383 | 39.70561 | 7830 ft | 286 kts | 287° |
| 2026-04-17 14:57 | 43.06004 | 39.67974 | 7853 ft | 287 kts | 287° |
| 2026-04-17 14:57 | 43.06625 | 39.65363 | 7884 ft | 287 kts | 287° |
| 2026-04-17 14:58 | 43.07232 | 39.62759 | 7906 ft | 286 kts | 287° |
| 2026-04-17 14:58 | 43.07833 | 39.60158 | 7927 ft | 287 kts | 287° |
| 2026-04-17 14:58 | 43.08434 | 39.57547 | 7937 ft | 287 kts | 286° |
| 2026-04-17 14:58 | 43.09025 | 39.54976 | 7935 ft | 287 kts | 286° |
| 2026-04-17 14:59 | 43.09632 | 39.52323 | 7853 ft | 288 kts | 287° |
| 2026-04-17 14:59 | 43.10249 | 39.49704 | 7485 ft | 289 kts | 291° |
| 2026-04-17 14:59 | 43.11379 | 39.47509 | 7119 ft | 288 kts | 323° |
| 2026-04-17 14:59 | 43.13165 | 39.46372 | 6798 ft | 283 kts | 352° |
| 2026-04-17 15:00 | 43.15124 | 39.46384 | 6512 ft | 278 kts | 8° |
| 2026-04-17 15:00 | 43.17054 | 39.46762 | 6183 ft | 275 kts | 20° |
| 2026-04-17 15:00 | 43.18658 | 39.48023 | 5861 ft | 267 kts | 47° |
| 2026-04-17 15:00 | 43.19658 | 39.50108 | 5815 ft | 263 kts | 71° |
| 2026-04-17 15:01 | 43.20222 | 39.52504 | 5852 ft | 264 kts | 75° |
| 2026-04-17 15:01 | 43.20757 | 39.54915 | 5844 ft | 265 kts | 75° |
| 2026-04-17 15:01 | 43.21302 | 39.57342 | 5538 ft | 266 kts | 74° |
| 2026-04-17 15:01 | 43.21856 | 39.59750 | 5246 ft | 264 kts | 74° |
| 2026-04-17 15:02 | 43.22409 | 39.62143 | 4947 ft | 262 kts | 74° |
| 2026-04-17 15:02 | 43.22961 | 39.64524 | 4644 ft | 261 kts | 74° |
| 2026-04-17 15:02 | 43.23508 | 39.66888 | 4351 ft | 259 kts | 74° |
| 2026-04-17 15:02 | 43.24052 | 39.69237 | 4073 ft | 257 kts | 73° |
| 2026-04-17 15:03 | 43.24592 | 39.71569 | 3797 ft | 256 kts | 73° |
| 2026-04-17 15:03 | 43.25125 | 39.73877 | 3631 ft | 248 kts | 73° |
| 2026-04-17 15:03 | 43.25633 | 39.76072 | 3632 ft | 234 kts | 74° |
| 2026-04-17 15:03 | 43.26111 | 39.78138 | 3625 ft | 222 kts | 74° |
| 2026-04-17 15:04 | 43.26578 | 39.80162 | 3554 ft | 221 kts | 74° |
| 2026-04-17 15:04 | 43.27266 | 39.82034 | 3380 ft | 224 kts | 48° |
| 2026-04-17 15:04 | 43.28500 | 39.83346 | 3187 ft | 226 kts | 32° |
| 2026-04-17 15:04 | 43.29899 | 39.84352 | 2900 ft | 227 kts | 28° |
| 2026-04-17 15:05 | 43.31311 | 39.85325 | 2630 ft | 226 kts | 28° |
| 2026-04-17 15:05 | 43.32668 | 39.86314 | 2383 ft | 215 kts | 29° |
| 2026-04-17 15:05 | 43.33944 | 39.87280 | 2092 ft | 204 kts | 29° |
| 2026-04-17 15:05 | 43.35152 | 39.88202 | 1805 ft | 193 kts | 28° |
| 2026-04-17 15:06 | 43.36295 | 39.89068 | 1541 ft | 181 kts | 28° |
| 2026-04-17 15:06 | 43.37357 | 39.89873 | 1321 ft | 167 kts | 27° |
| 2026-04-17 15:06 | 43.38339 | 39.90616 | 1117 ft | 156 kts | 27° |
| 2026-04-17 15:06 | 43.39288 | 39.91331 | 948 ft | 155 kts | 26° |
| 2026-04-17 15:07 | 43.40230 | 39.92042 | 767 ft | 154 kts | 26° |
| 2026-04-17 15:07 | 43.41172 | 39.92752 | 586 ft | 155 kts | 27° |
| 2026-04-17 15:07 | 43.42118 | 39.93468 | 375 ft | 155 kts | 27° |
| 2026-04-17 15:07 | 43.43062 | 39.94180 | 182 ft | 155 kts | 28° |
| 2026-04-17 15:08 | 43.43965 | 39.94860 | 85 ft | 119 kts | 28° |
| 2026-04-17 15:08 | 43.44394 | 39.95179 | 92 ft | 29 kts | 29° |
| 2026-04-17 15:08 | 43.44575 | 39.95318 | 95 ft | 30 kts | 28° |